sensor_id;sensor_type;location;lat;lon;timestamp;P1;durP1;ratioP1;P2;durP2;ratioP2
35679;SDS011;21803;53.586;10.040;2023-06-14T04:02:48;1.00;;;0.90;;
35679;SDS011;21803;53.586;10.040;2023-06-14T04:05:14;1.13;;;1.00;;
35679;SDS011;21803;53.586;10.040;2023-06-14T04:07:41;1.45;;;1.00;;
35679;SDS011;21803;53.586;10.040;2023-06-14T04:10:16;1.17;;;1.00;;
35679;SDS011;21803;53.586;10.040;2023-06-14T04:12:42;1.05;;;0.90;;
35679;SDS011;21803;53.586;10.040;2023-06-14T04:15:08;1.50;;;0.93;;
35679;SDS011;21803;53.586;10.040;2023-06-14T04:17:36;1.10;;;1.00;;
35679;SDS011;21803;53.586;10.040;2023-06-14T04:20:02;1.48;;;0.98;;
35679;SDS011;21803;53.586;10.040;2023-06-14T04:22:30;1.10;;;1.00;;
35679;SDS011;21803;53.586;10.040;2023-06-14T04:24:56;1.40;;;1.00;;
35679;SDS011;21803;53.586;10.040;2023-06-14T04:27:22;0.80;;;0.77;;
35679;SDS011;21803;53.586;10.040;2023-06-14T04:29:51;1.30;;;0.95;;
35679;SDS011;21803;53.586;10.040;2023-06-14T04:32:22;1.10;;;0.80;;
35679;SDS011;21803;53.586;10.040;2023-06-14T04:34:57;1.35;;;1.05;;
35679;SDS011;21803;53.586;10.040;2023-06-14T04:37:24;1.00;;;0.80;;
35679;SDS011;21803;53.586;10.040;2023-06-14T04:39:51;1.10;;;1.00;;
35679;SDS011;21803;53.586;10.040;2023-06-14T04:42:16;1.67;;;0.80;;
35679;SDS011;21803;53.586;10.040;2023-06-14T04:44:45;1.38;;;1.00;;
35679;SDS011;21803;53.586;10.040;2023-06-14T04:47:12;1.40;;;1.20;;
35679;SDS011;21803;53.586;10.040;2023-06-14T04:49:39;1.20;;;1.02;;
35679;SDS011;21803;53.586;10.040;2023-06-14T04:52:05;0.98;;;0.80;;
35679;SDS011;21803;53.586;10.040;2023-06-14T04:54:31;1.15;;;1.05;;
35679;SDS011;21803;53.586;10.040;2023-06-14T04:56:58;1.05;;;0.90;;
35679;SDS011;21803;53.586;10.040;2023-06-14T04:59:24;2.30;;;0.90;;
35679;SDS011;21803;53.586;10.040;2023-06-14T05:01:50;0.85;;;0.80;;
35679;SDS011;21803;53.586;10.040;2023-06-14T05:04:16;1.08;;;0.98;;
35679;SDS011;21803;53.586;10.040;2023-06-14T05:06:42;1.23;;;1.02;;
35679;SDS011;21803;53.586;10.040;2023-06-14T05:09:10;1.13;;;0.90;;
35679;SDS011;21803;53.586;10.040;2023-06-14T05:11:35;1.20;;;1.10;;
35679;SDS011;21803;53.586;10.040;2023-06-14T05:14:01;1.88;;;1.02;;
35679;SDS011;21803;53.586;10.040;2023-06-14T05:16:26;1.73;;;1.02;;
35679;SDS011;21803;53.586;10.040;2023-06-14T05:18:52;1.30;;;0.98;;
35679;SDS011;21803;53.586;10.040;2023-06-14T05:21:18;1.02;;;0.90;;
35679;SDS011;21803;53.586;10.040;2023-06-14T05:23:46;1.10;;;0.82;;
35679;SDS011;21803;53.586;10.040;2023-06-14T05:26:12;1.17;;;0.98;;
35679;SDS011;21803;53.586;10.040;2023-06-14T05:28:38;1.52;;;0.82;;
35679;SDS011;21803;53.586;10.040;2023-06-14T05:31:03;1.38;;;0.93;;
35679;SDS011;21803;53.586;10.040;2023-06-14T05:33:29;1.33;;;0.95;;
35679;SDS011;21803;53.586;10.040;2023-06-14T05:35:55;0.90;;;0.80;;
35679;SDS011;21803;53.586;10.040;2023-06-14T05:38:20;1.13;;;0.90;;
35679;SDS011;21803;53.586;10.040;2023-06-14T05:40:46;0.85;;;0.75;;
35679;SDS011;21803;53.586;10.040;2023-06-14T05:43:11;1.30;;;1.00;;
35679;SDS011;21803;53.586;10.040;2023-06-14T05:45:37;1.70;;;1.05;;
35679;SDS011;21803;53.586;10.040;2023-06-14T05:48:03;1.00;;;0.90;;
35679;SDS011;21803;53.586;10.040;2023-06-14T05:50:28;1.15;;;1.05;;
35679;SDS011;21803;53.586;10.040;2023-06-14T05:52:54;1.65;;;0.80;;
35679;SDS011;21803;53.586;10.040;2023-06-14T05:55:20;1.10;;;0.85;;
35679;SDS011;21803;53.586;10.040;2023-06-14T05:57:45;1.10;;;1.00;;
35679;SDS011;21803;53.586;10.040;2023-06-14T06:00:12;1.10;;;1.00;;
35679;SDS011;21803;53.586;10.040;2023-06-14T06:02:41;1.17;;;0.90;;
35679;SDS011;21803;53.586;10.040;2023-06-14T06:05:08;1.60;;;0.90;;
35679;SDS011;21803;53.586;10.040;2023-06-14T06:07:34;1.98;;;1.20;;
35679;SDS011;21803;53.586;10.040;2023-06-14T06:10:00;0.90;;;0.85;;
35679;SDS011;21803;53.586;10.040;2023-06-14T06:12:25;1.17;;;0.90;;
35679;SDS011;21803;53.586;10.040;2023-06-14T06:14:51;1.33;;;0.98;;
35679;SDS011;21803;53.586;10.040;2023-06-14T06:17:16;1.48;;;0.93;;
35679;SDS011;21803;53.586;10.040;2023-06-14T06:19:42;1.30;;;1.00;;
35679;SDS011;21803;53.586;10.040;2023-06-14T06:22:07;2.08;;;1.00;;
35679;SDS011;21803;53.586;10.040;2023-06-14T06:24:33;1.20;;;0.93;;
35679;SDS011;21803;53.586;10.040;2023-06-14T06:26:58;1.45;;;1.10;;
35679;SDS011;21803;53.586;10.040;2023-06-14T06:29:25;1.25;;;0.98;;
35679;SDS011;21803;53.586;10.040;2023-06-14T06:31:50;2.75;;;1.20;;
35679;SDS011;21803;53.586;10.040;2023-06-14T06:34:16;1.10;;;1.00;;
35679;SDS011;21803;53.586;10.040;2023-06-14T06:36:41;1.30;;;0.93;;
35679;SDS011;21803;53.586;10.040;2023-06-14T06:39:07;4.53;;;1.20;;
35679;SDS011;21803;53.586;10.040;2023-06-14T06:41:35;2.63;;;1.05;;
35679;SDS011;21803;53.586;10.040;2023-06-14T06:44:04;3.85;;;1.13;;
35679;SDS011;21803;53.586;10.040;2023-06-14T06:46:34;4.55;;;1.40;;
35679;SDS011;21803;53.586;10.040;2023-06-14T06:49:00;4.55;;;1.10;;
35679;SDS011;21803;53.586;10.040;2023-06-14T06:51:25;2.72;;;1.25;;
35679;SDS011;21803;53.586;10.040;2023-06-14T06:53:54;1.85;;;1.00;;
35679;SDS011;21803;53.586;10.040;2023-06-14T06:56:20;4.22;;;1.15;;
35679;SDS011;21803;53.586;10.040;2023-06-14T06:58:48;2.22;;;1.05;;
35679;SDS011;21803;53.586;10.040;2023-06-14T07:01:14;2.85;;;1.27;;
35679;SDS011;21803;53.586;10.040;2023-06-14T07:03:40;2.58;;;1.23;;
35679;SDS011;21803;53.586;10.040;2023-06-14T07:06:06;5.15;;;1.00;;
35679;SDS011;21803;53.586;10.040;2023-06-14T07:08:32;2.60;;;1.00;;
35679;SDS011;21803;53.586;10.040;2023-06-14T07:10:57;3.25;;;1.20;;
35679;SDS011;21803;53.586;10.040;2023-06-14T07:13:23;1.98;;;1.00;;
35679;SDS011;21803;53.586;10.040;2023-06-14T07:15:48;3.08;;;1.33;;
35679;SDS011;21803;53.586;10.040;2023-06-14T07:18:14;3.30;;;1.00;;
35679;SDS011;21803;53.586;10.040;2023-06-14T07:20:40;3.03;;;1.23;;
35679;SDS011;21803;53.586;10.040;2023-06-14T07:23:05;1.10;;;0.77;;
35679;SDS011;21803;53.586;10.040;2023-06-14T07:25:31;3.22;;;1.00;;
35679;SDS011;21803;53.586;10.040;2023-06-14T07:27:56;3.33;;;1.10;;
35679;SDS011;21803;53.586;10.040;2023-06-14T07:30:22;2.97;;;1.30;;
35679;SDS011;21803;53.586;10.040;2023-06-14T07:32:51;1.95;;;1.10;;
35679;SDS011;21803;53.586;10.040;2023-06-14T07:35:17;1.50;;;1.00;;
35679;SDS011;21803;53.586;10.040;2023-06-14T07:37:43;1.50;;;1.20;;
35679;SDS011;21803;53.586;10.040;2023-06-14T07:40:08;2.10;;;1.17;;
35679;SDS011;21803;53.586;10.040;2023-06-14T07:42:35;3.10;;;1.20;;
35679;SDS011;21803;53.586;10.040;2023-06-14T07:45:01;1.88;;;1.00;;
35679;SDS011;21803;53.586;10.040;2023-06-14T07:47:28;2.75;;;1.20;;
35679;SDS011;21803;53.586;10.040;2023-06-14T07:49:53;1.83;;;1.15;;
35679;SDS011;21803;53.586;10.040;2023-06-14T07:52:19;1.20;;;1.10;;
35679;SDS011;21803;53.586;10.040;2023-06-14T07:54:45;3.38;;;1.10;;
35679;SDS011;21803;53.586;10.040;2023-06-14T07:57:10;3.05;;;0.95;;
35679;SDS011;21803;53.586;10.040;2023-06-14T07:59:36;1.48;;;1.00;;
35679;SDS011;21803;53.586;10.040;2023-06-14T08:02:01;2.33;;;1.05;;
35679;SDS011;21803;53.586;10.040;2023-06-14T08:04:27;2.33;;;1.00;;
35679;SDS011;21803;53.586;10.040;2023-06-14T08:06:52;1.38;;;1.00;;
35679;SDS011;21803;53.586;10.040;2023-06-14T08:09:18;2.53;;;1.13;;
35679;SDS011;21803;53.586;10.040;2023-06-14T08:11:44;2.78;;;1.10;;
35679;SDS011;21803;53.586;10.040;2023-06-14T08:14:10;1.40;;;1.10;;
35679;SDS011;21803;53.586;10.040;2023-06-14T08:16:36;1.23;;;0.80;;
35679;SDS011;21803;53.586;10.040;2023-06-14T08:19:02;1.10;;;0.80;;
35679;SDS011;21803;53.586;10.040;2023-06-14T08:21:28;1.48;;;1.10;;
35679;SDS011;21803;53.586;10.040;2023-06-14T08:23:54;1.85;;;0.95;;
35679;SDS011;21803;53.586;10.040;2023-06-14T08:26:20;1.55;;;1.08;;
35679;SDS011;21803;53.586;10.040;2023-06-14T08:28:46;1.63;;;1.00;;
35679;SDS011;21803;53.586;10.040;2023-06-14T08:31:11;1.40;;;0.90;;
35679;SDS011;21803;53.586;10.040;2023-06-14T08:33:38;2.05;;;1.20;;
35679;SDS011;21803;53.586;10.040;2023-06-14T08:36:07;2.15;;;1.25;;
35679;SDS011;21803;53.586;10.040;2023-06-14T08:38:33;2.15;;;1.20;;
35679;SDS011;21803;53.586;10.040;2023-06-14T08:40:59;1.25;;;0.93;;
35679;SDS011;21803;53.586;10.040;2023-06-14T08:43:26;2.95;;;1.25;;
35679;SDS011;21803;53.586;10.040;2023-06-14T08:45:54;2.80;;;1.00;;
35679;SDS011;21803;53.586;10.040;2023-06-14T08:48:26;2.15;;;1.15;;
35679;SDS011;21803;53.586;10.040;2023-06-14T08:50:51;1.98;;;1.00;;
35679;SDS011;21803;53.586;10.040;2023-06-14T08:53:26;0.98;;;0.88;;
35679;SDS011;21803;53.586;10.040;2023-06-14T08:55:56;1.88;;;1.02;;
35679;SDS011;21803;53.586;10.040;2023-06-14T08:58:25;1.67;;;1.08;;
35679;SDS011;21803;53.586;10.040;2023-06-14T09:00:51;1.10;;;0.98;;
35679;SDS011;21803;53.586;10.040;2023-06-14T09:03:17;1.27;;;0.93;;
35679;SDS011;21803;53.586;10.040;2023-06-14T09:05:46;2.03;;;1.10;;
35679;SDS011;21803;53.586;10.040;2023-06-14T09:08:12;1.63;;;1.02;;
35679;SDS011;21803;53.586;10.040;2023-06-14T09:10:37;1.35;;;1.10;;
35679;SDS011;21803;53.586;10.040;2023-06-14T09:13:05;2.58;;;1.00;;
35679;SDS011;21803;53.586;10.040;2023-06-14T09:15:31;1.52;;;0.95;;
35679;SDS011;21803;53.586;10.040;2023-06-14T09:17:57;1.40;;;1.13;;
35679;SDS011;21803;53.586;10.040;2023-06-14T09:20:25;1.77;;;1.10;;
35679;SDS011;21803;53.586;10.040;2023-06-14T09:22:51;1.77;;;1.20;;
35679;SDS011;21803;53.586;10.040;2023-06-14T09:25:18;1.23;;;0.93;;
35679;SDS011;21803;53.586;10.040;2023-06-14T09:27:45;2.13;;;1.02;;
35679;SDS011;21803;53.586;10.040;2023-06-14T09:30:12;1.42;;;1.10;;
35679;SDS011;21803;53.586;10.040;2023-06-14T09:32:38;1.20;;;1.08;;
35679;SDS011;21803;53.586;10.040;2023-06-14T09:35:08;1.33;;;1.02;;
35679;SDS011;21803;53.586;10.040;2023-06-14T09:37:34;1.08;;;0.90;;
35679;SDS011;21803;53.586;10.040;2023-06-14T09:40:00;1.40;;;1.30;;
35679;SDS011;21803;53.586;10.040;2023-06-14T09:42:26;2.03;;;1.00;;
35679;SDS011;21803;53.586;10.040;2023-06-14T09:44:53;1.60;;;0.90;;
35679;SDS011;21803;53.586;10.040;2023-06-14T09:47:20;1.35;;;1.20;;
35679;SDS011;21803;53.586;10.040;2023-06-14T09:49:46;1.20;;;1.00;;
35679;SDS011;21803;53.586;10.040;2023-06-14T09:52:21;1.58;;;1.05;;
35679;SDS011;21803;53.586;10.040;2023-06-14T09:54:48;1.48;;;1.00;;
35679;SDS011;21803;53.586;10.040;2023-06-14T09:57:16;2.25;;;1.13;;
35679;SDS011;21803;53.586;10.040;2023-06-14T09:59:46;1.77;;;1.20;;
35679;SDS011;21803;53.586;10.040;2023-06-14T10:05:03;1.38;;;1.00;;
35679;SDS011;21803;53.586;10.040;2023-06-14T10:10:18;2.08;;;1.10;;
35679;SDS011;21803;53.586;10.040;2023-06-14T10:12:44;1.30;;;0.93;;
35679;SDS011;21803;53.586;10.040;2023-06-14T10:15:11;1.40;;;1.10;;
35679;SDS011;21803;53.586;10.040;2023-06-14T10:20:58;1.30;;;1.20;;
35679;SDS011;21803;53.586;10.040;2023-06-14T10:23:34;1.15;;;1.05;;
35679;SDS011;21803;53.586;10.040;2023-06-14T10:26:03;2.65;;;1.00;;
35679;SDS011;21803;53.586;10.040;2023-06-14T10:28:29;1.30;;;1.20;;
35679;SDS011;21803;53.586;10.040;2023-06-14T10:31:10;1.30;;;1.20;;
35679;SDS011;21803;53.586;10.040;2023-06-14T10:33:50;1.92;;;1.33;;
35679;SDS011;21803;53.586;10.040;2023-06-14T10:36:28;1.83;;;1.20;;
35679;SDS011;21803;53.586;10.040;2023-06-14T10:41:31;1.25;;;1.00;;
35679;SDS011;21803;53.586;10.040;2023-06-14T10:46:48;1.58;;;1.48;;
35679;SDS011;21803;53.586;10.040;2023-06-14T10:49:21;1.55;;;1.20;;
35679;SDS011;21803;53.586;10.040;2023-06-14T10:52:08;1.48;;;1.00;;
35679;SDS011;21803;53.586;10.040;2023-06-14T11:00:23;2.13;;;1.40;;
35679;SDS011;21803;53.586;10.040;2023-06-14T11:05:34;2.20;;;1.10;;
35679;SDS011;21803;53.586;10.040;2023-06-14T11:08:12;1.15;;;1.02;;
35679;SDS011;21803;53.586;10.040;2023-06-14T11:10:49;1.70;;;1.27;;
35679;SDS011;21803;53.586;10.040;2023-06-14T11:13:16;2.28;;;1.58;;
35679;SDS011;21803;53.586;10.040;2023-06-14T11:15:45;2.67;;;1.40;;
35679;SDS011;21803;53.586;10.040;2023-06-14T11:18:13;2.25;;;1.52;;
35679;SDS011;21803;53.586;10.040;2023-06-14T11:20:39;1.45;;;1.35;;
35679;SDS011;21803;53.586;10.040;2023-06-14T11:23:05;2.13;;;1.42;;
35679;SDS011;21803;53.586;10.040;2023-06-14T11:25:31;1.80;;;1.55;;
35679;SDS011;21803;53.586;10.040;2023-06-14T11:27:57;2.20;;;1.80;;
35679;SDS011;21803;53.586;10.040;2023-06-14T11:30:24;2.47;;;2.00;;
35679;SDS011;21803;53.586;10.040;2023-06-14T11:32:51;3.08;;;2.13;;
35679;SDS011;21803;53.586;10.040;2023-06-14T11:35:18;3.08;;;1.95;;
35679;SDS011;21803;53.586;10.040;2023-06-14T11:37:44;4.53;;;2.33;;
35679;SDS011;21803;53.586;10.040;2023-06-14T11:40:10;2.42;;;2.00;;
35679;SDS011;21803;53.586;10.040;2023-06-14T11:42:38;2.95;;;1.95;;
35679;SDS011;21803;53.586;10.040;2023-06-14T11:45:07;2.67;;;2.05;;
35679;SDS011;21803;53.586;10.040;2023-06-14T11:47:33;2.80;;;2.03;;
35679;SDS011;21803;53.586;10.040;2023-06-14T11:50:00;2.00;;;1.77;;
35679;SDS011;21803;53.586;10.040;2023-06-14T11:52:26;3.10;;;2.00;;
35679;SDS011;21803;53.586;10.040;2023-06-14T11:54:52;2.78;;;2.00;;
35679;SDS011;21803;53.586;10.040;2023-06-14T11:57:18;2.58;;;1.92;;
35679;SDS011;21803;53.586;10.040;2023-06-14T11:59:44;4.30;;;2.10;;
35679;SDS011;21803;53.586;10.040;2023-06-14T12:02:19;2.85;;;1.95;;
35679;SDS011;21803;53.586;10.040;2023-06-14T12:04:47;2.70;;;2.10;;
35679;SDS011;21803;53.586;10.040;2023-06-14T12:07:14;2.10;;;1.80;;
35679;SDS011;21803;53.586;10.040;2023-06-14T12:12:24;2.72;;;1.75;;
35679;SDS011;21803;53.586;10.040;2023-06-14T12:14:50;3.80;;;2.13;;
35679;SDS011;21803;53.586;10.040;2023-06-14T12:17:16;2.20;;;1.80;;
35679;SDS011;21803;53.586;10.040;2023-06-14T12:19:43;4.40;;;2.30;;
35679;SDS011;21803;53.586;10.040;2023-06-14T12:22:14;2.35;;;1.80;;
35679;SDS011;21803;53.586;10.040;2023-06-14T12:24:42;4.30;;;1.73;;
35679;SDS011;21803;53.586;10.040;2023-06-14T12:27:08;2.33;;;1.88;;
35679;SDS011;21803;53.586;10.040;2023-06-14T12:29:37;2.40;;;2.00;;
35679;SDS011;21803;53.586;10.040;2023-06-14T12:32:03;2.33;;;1.73;;
35679;SDS011;21803;53.586;10.040;2023-06-14T12:34:29;3.88;;;2.00;;
35679;SDS011;21803;53.586;10.040;2023-06-14T12:36:56;2.53;;;1.98;;
35679;SDS011;21803;53.586;10.040;2023-06-14T12:39:22;3.05;;;1.80;;
35679;SDS011;21803;53.586;10.040;2023-06-14T12:41:48;4.25;;;1.83;;
35679;SDS011;21803;53.586;10.040;2023-06-14T12:44:16;2.47;;;1.80;;
35679;SDS011;21803;53.586;10.040;2023-06-14T12:46:42;3.97;;;1.80;;
35679;SDS011;21803;53.586;10.040;2023-06-14T12:49:09;4.70;;;1.80;;
35679;SDS011;21803;53.586;10.040;2023-06-14T12:51:36;2.95;;;2.00;;
35679;SDS011;21803;53.586;10.040;2023-06-14T12:54:02;2.05;;;1.85;;
35679;SDS011;21803;53.586;10.040;2023-06-14T12:56:28;5.25;;;2.40;;
35679;SDS011;21803;53.586;10.040;2023-06-14T12:58:53;2.42;;;1.90;;
35679;SDS011;21803;53.586;10.040;2023-06-14T13:01:19;2.95;;;2.00;;
35679;SDS011;21803;53.586;10.040;2023-06-14T13:03:46;4.32;;;2.30;;
35679;SDS011;21803;53.586;10.040;2023-06-14T13:06:11;3.58;;;2.20;;
35679;SDS011;21803;53.586;10.040;2023-06-14T13:08:37;2.83;;;2.28;;
35679;SDS011;21803;53.586;10.040;2023-06-14T13:11:03;3.53;;;1.90;;
35679;SDS011;21803;53.586;10.040;2023-06-14T13:13:28;2.72;;;1.90;;
35679;SDS011;21803;53.586;10.040;2023-06-14T13:15:54;2.67;;;2.10;;
35679;SDS011;21803;53.586;10.040;2023-06-14T13:18:19;3.35;;;2.10;;
35679;SDS011;21803;53.586;10.040;2023-06-14T13:20:45;2.80;;;1.90;;
35679;SDS011;21803;53.586;10.040;2023-06-14T13:23:12;5.03;;;1.88;;
35679;SDS011;21803;53.586;10.040;2023-06-14T13:25:38;3.22;;;2.00;;
35679;SDS011;21803;53.586;10.040;2023-06-14T13:28:04;2.83;;;1.52;;
35679;SDS011;21803;53.586;10.040;2023-06-14T13:30:31;3.50;;;1.92;;
35679;SDS011;21803;53.586;10.040;2023-06-14T13:32:57;2.53;;;1.67;;
35679;SDS011;21803;53.586;10.040;2023-06-14T13:35:24;2.50;;;1.63;;
35679;SDS011;21803;53.586;10.040;2023-06-14T13:37:50;3.63;;;1.60;;
35679;SDS011;21803;53.586;10.040;2023-06-14T13:40:16;2.08;;;1.50;;
35679;SDS011;21803;53.586;10.040;2023-06-14T13:42:42;2.97;;;1.60;;
35679;SDS011;21803;53.586;10.040;2023-06-14T13:45:08;1.85;;;1.45;;
35679;SDS011;21803;53.586;10.040;2023-06-14T13:47:35;2.35;;;1.70;;
35679;SDS011;21803;53.586;10.040;2023-06-14T13:50:01;2.90;;;1.50;;
35679;SDS011;21803;53.586;10.040;2023-06-14T13:52:27;2.83;;;1.60;;
35679;SDS011;21803;53.586;10.040;2023-06-14T13:54:52;3.97;;;1.92;;
35679;SDS011;21803;53.586;10.040;2023-06-14T13:57:19;1.92;;;1.58;;
35679;SDS011;21803;53.586;10.040;2023-06-14T13:59:45;2.83;;;1.40;;
35679;SDS011;21803;53.586;10.040;2023-06-14T14:02:10;3.08;;;1.40;;
35679;SDS011;21803;53.586;10.040;2023-06-14T14:04:37;1.88;;;1.50;;
35679;SDS011;21803;53.586;10.040;2023-06-14T14:07:03;1.55;;;1.23;;
35679;SDS011;21803;53.586;10.040;2023-06-14T14:09:29;3.00;;;1.63;;
35679;SDS011;21803;53.586;10.040;2023-06-14T14:11:55;2.58;;;1.42;;
35679;SDS011;21803;53.586;10.040;2023-06-14T14:14:21;1.98;;;1.50;;
35679;SDS011;21803;53.586;10.040;2023-06-14T14:16:48;2.55;;;1.40;;
35679;SDS011;21803;53.586;10.040;2023-06-14T14:19:14;1.73;;;1.25;;
35679;SDS011;21803;53.586;10.040;2023-06-14T14:21:39;1.98;;;1.58;;
35679;SDS011;21803;53.586;10.040;2023-06-14T14:24:05;1.50;;;1.40;;
35679;SDS011;21803;53.586;10.040;2023-06-14T14:26:31;2.70;;;1.83;;
35679;SDS011;21803;53.586;10.040;2023-06-14T14:28:56;2.03;;;1.42;;
35679;SDS011;21803;53.586;10.040;2023-06-14T14:31:22;2.80;;;1.40;;
35679;SDS011;21803;53.586;10.040;2023-06-14T14:33:47;4.15;;;2.05;;
35679;SDS011;21803;53.586;10.040;2023-06-14T14:36:13;2.25;;;1.55;;
35679;SDS011;21803;53.586;10.040;2023-06-14T14:38:39;3.53;;;1.63;;
35679;SDS011;21803;53.586;10.040;2023-06-14T14:41:04;2.83;;;1.30;;
35679;SDS011;21803;53.586;10.040;2023-06-14T14:43:30;1.48;;;1.38;;
35679;SDS011;21803;53.586;10.040;2023-06-14T14:45:56;2.28;;;1.50;;
35679;SDS011;21803;53.586;10.040;2023-06-14T14:48:22;2.15;;;1.67;;
35679;SDS011;21803;53.586;10.040;2023-06-14T14:50:48;1.55;;;1.30;;
35679;SDS011;21803;53.586;10.040;2023-06-14T14:53:13;2.65;;;1.40;;
35679;SDS011;21803;53.586;10.040;2023-06-14T14:55:41;1.50;;;1.35;;
35679;SDS011;21803;53.586;10.040;2023-06-14T14:58:07;2.13;;;1.50;;
35679;SDS011;21803;53.586;10.040;2023-06-14T15:00:33;1.85;;;1.42;;
35679;SDS011;21803;53.586;10.040;2023-06-14T15:03:00;2.38;;;1.40;;
35679;SDS011;21803;53.586;10.040;2023-06-14T15:05:25;1.80;;;1.20;;
35679;SDS011;21803;53.586;10.040;2023-06-14T15:07:51;1.77;;;1.40;;
35679;SDS011;21803;53.586;10.040;2023-06-14T15:10:16;1.50;;;1.30;;
35679;SDS011;21803;53.586;10.040;2023-06-14T15:12:42;1.60;;;1.30;;
35679;SDS011;21803;53.586;10.040;2023-06-14T15:15:07;3.72;;;1.52;;
35679;SDS011;21803;53.586;10.040;2023-06-14T15:17:34;1.90;;;1.15;;
35679;SDS011;21803;53.586;10.040;2023-06-14T15:20:00;1.20;;;1.10;;
35679;SDS011;21803;53.586;10.040;2023-06-14T15:22:25;1.80;;;1.50;;
35679;SDS011;21803;53.586;10.040;2023-06-14T15:24:51;2.38;;;1.48;;
35679;SDS011;21803;53.586;10.040;2023-06-14T15:27:17;2.85;;;1.50;;
35679;SDS011;21803;53.586;10.040;2023-06-14T15:29:43;2.05;;;1.40;;
35679;SDS011;21803;53.586;10.040;2023-06-14T15:32:09;1.70;;;1.48;;
35679;SDS011;21803;53.586;10.040;2023-06-14T15:34:35;1.85;;;1.35;;
35679;SDS011;21803;53.586;10.040;2023-06-14T15:37:04;2.17;;;1.70;;
35679;SDS011;21803;53.586;10.040;2023-06-14T15:39:30;3.63;;;1.80;;
35679;SDS011;21803;53.586;10.040;2023-06-14T15:41:57;3.60;;;1.65;;
35679;SDS011;21803;53.586;10.040;2023-06-14T15:44:23;2.28;;;1.63;;
35679;SDS011;21803;53.586;10.040;2023-06-14T15:46:48;2.10;;;1.50;;
35679;SDS011;21803;53.586;10.040;2023-06-14T15:49:14;2.03;;;1.40;;
35679;SDS011;21803;53.586;10.040;2023-06-14T15:51:40;2.85;;;1.52;;
35679;SDS011;21803;53.586;10.040;2023-06-14T15:54:05;3.25;;;1.50;;
35679;SDS011;21803;53.586;10.040;2023-06-14T15:56:31;4.43;;;1.73;;
35679;SDS011;21803;53.586;10.040;2023-06-14T15:58:58;3.03;;;1.95;;
35679;SDS011;21803;53.586;10.040;2023-06-14T16:01:23;2.40;;;1.70;;
35679;SDS011;21803;53.586;10.040;2023-06-14T16:03:49;1.80;;;1.70;;
35679;SDS011;21803;53.586;10.040;2023-06-14T16:06:15;2.20;;;1.75;;
35679;SDS011;21803;53.586;10.040;2023-06-14T16:08:41;2.85;;;1.90;;
35679;SDS011;21803;53.586;10.040;2023-06-14T16:11:06;2.35;;;1.83;;
35679;SDS011;21803;53.586;10.040;2023-06-14T16:13:32;3.15;;;1.63;;
35679;SDS011;21803;53.586;10.040;2023-06-14T16:15:58;3.38;;;1.70;;
35679;SDS011;21803;53.586;10.040;2023-06-14T16:18:23;1.90;;;1.70;;
35679;SDS011;21803;53.586;10.040;2023-06-14T16:20:49;2.60;;;1.73;;
35679;SDS011;21803;53.586;10.040;2023-06-14T16:23:15;2.72;;;1.80;;
35679;SDS011;21803;53.586;10.040;2023-06-14T16:25:41;3.42;;;1.63;;
35679;SDS011;21803;53.586;10.040;2023-06-14T16:28:06;2.45;;;1.90;;
35679;SDS011;21803;53.586;10.040;2023-06-14T16:30:32;3.13;;;1.85;;
35679;SDS011;21803;53.586;10.040;2023-06-14T16:32:57;1.75;;;1.50;;
35679;SDS011;21803;53.586;10.040;2023-06-14T16:35:23;2.08;;;1.63;;
35679;SDS011;21803;53.586;10.040;2023-06-14T16:37:48;2.53;;;1.77;;
35679;SDS011;21803;53.586;10.040;2023-06-14T16:40:14;2.38;;;1.95;;
35679;SDS011;21803;53.586;10.040;2023-06-14T16:42:39;3.90;;;1.70;;
35679;SDS011;21803;53.586;10.040;2023-06-14T16:45:05;2.60;;;2.03;;
35679;SDS011;21803;53.586;10.040;2023-06-14T16:47:31;4.00;;;1.92;;
35679;SDS011;21803;53.586;10.040;2023-06-14T16:49:57;2.10;;;1.88;;
35679;SDS011;21803;53.586;10.040;2023-06-14T16:52:22;3.35;;;1.92;;
35679;SDS011;21803;53.586;10.040;2023-06-14T16:54:48;4.07;;;2.05;;
35679;SDS011;21803;53.586;10.040;2023-06-14T16:57:13;3.80;;;2.00;;
35679;SDS011;21803;53.586;10.040;2023-06-14T16:59:39;4.75;;;2.00;;
35679;SDS011;21803;53.586;10.040;2023-06-14T17:02:04;2.47;;;2.08;;
35679;SDS011;21803;53.586;10.040;2023-06-14T17:04:30;2.25;;;1.80;;
35679;SDS011;21803;53.586;10.040;2023-06-14T17:06:56;2.70;;;2.08;;
35679;SDS011;21803;53.586;10.040;2023-06-14T17:09:22;4.32;;;2.22;;
35679;SDS011;21803;53.586;10.040;2023-06-14T17:11:48;4.18;;;2.10;;
35679;SDS011;21803;53.586;10.040;2023-06-14T17:14:14;4.82;;;1.77;;
35679;SDS011;21803;53.586;10.040;2023-06-14T17:16:40;3.00;;;2.10;;
35679;SDS011;21803;53.586;10.040;2023-06-14T17:19:06;2.60;;;2.10;;
35679;SDS011;21803;53.586;10.040;2023-06-14T17:21:31;2.80;;;1.92;;
35679;SDS011;21803;53.586;10.040;2023-06-14T17:23:57;3.92;;;2.20;;
35679;SDS011;21803;53.586;10.040;2023-06-14T17:26:23;2.72;;;1.80;;
35679;SDS011;21803;53.586;10.040;2023-06-14T17:28:50;4.53;;;1.95;;
35679;SDS011;21803;53.586;10.040;2023-06-14T17:31:16;3.45;;;1.85;;
35679;SDS011;21803;53.586;10.040;2023-06-14T17:33:42;2.28;;;2.00;;
35679;SDS011;21803;53.586;10.040;2023-06-14T17:36:08;2.45;;;1.83;;
35679;SDS011;21803;53.586;10.040;2023-06-14T17:38:34;4.90;;;2.00;;
35679;SDS011;21803;53.586;10.040;2023-06-14T17:41:01;3.33;;;2.38;;
35679;SDS011;21803;53.586;10.040;2023-06-14T17:43:29;2.60;;;2.13;;
35679;SDS011;21803;53.586;10.040;2023-06-14T17:45:54;1.98;;;1.77;;
35679;SDS011;21803;53.586;10.040;2023-06-14T17:48:20;3.45;;;2.05;;
35679;SDS011;21803;53.586;10.040;2023-06-14T17:50:45;2.85;;;2.13;;
35679;SDS011;21803;53.586;10.040;2023-06-14T17:53:11;2.20;;;1.90;;
35679;SDS011;21803;53.586;10.040;2023-06-14T17:55:37;2.90;;;2.03;;
35679;SDS011;21803;53.586;10.040;2023-06-14T17:58:02;3.03;;;1.90;;
35679;SDS011;21803;53.586;10.040;2023-06-14T18:00:30;3.22;;;2.25;;
35679;SDS011;21803;53.586;10.040;2023-06-14T18:02:55;3.38;;;1.88;;
35679;SDS011;21803;53.586;10.040;2023-06-14T18:05:23;3.72;;;2.08;;
35679;SDS011;21803;53.586;10.040;2023-06-14T18:07:50;4.13;;;2.03;;
35679;SDS011;21803;53.586;10.040;2023-06-14T18:10:16;3.17;;;1.98;;
35679;SDS011;21803;53.586;10.040;2023-06-14T18:12:42;2.25;;;1.80;;
35679;SDS011;21803;53.586;10.040;2023-06-14T18:15:07;2.58;;;1.65;;
35679;SDS011;21803;53.586;10.040;2023-06-14T18:17:34;2.47;;;1.70;;
35679;SDS011;21803;53.586;10.040;2023-06-14T18:20:00;2.70;;;1.80;;
35679;SDS011;21803;53.586;10.040;2023-06-14T18:22:27;1.85;;;1.48;;
35679;SDS011;21803;53.586;10.040;2023-06-14T18:24:52;2.55;;;1.80;;
35679;SDS011;21803;53.586;10.040;2023-06-14T18:27:18;4.07;;;2.08;;
35679;SDS011;21803;53.586;10.040;2023-06-14T18:29:43;4.15;;;2.10;;
35679;SDS011;21803;53.586;10.040;2023-06-14T18:32:11;2.60;;;1.83;;
35679;SDS011;21803;53.586;10.040;2023-06-14T18:34:36;3.22;;;1.77;;
35679;SDS011;21803;53.586;10.040;2023-06-14T18:37:02;2.55;;;1.90;;
35679;SDS011;21803;53.586;10.040;2023-06-14T18:39:27;2.90;;;1.90;;
35679;SDS011;21803;53.586;10.040;2023-06-14T18:41:53;3.15;;;1.90;;
35679;SDS011;21803;53.586;10.040;2023-06-14T18:44:18;3.08;;;1.85;;
35679;SDS011;21803;53.586;10.040;2023-06-14T18:46:45;2.90;;;1.60;;
35679;SDS011;21803;53.586;10.040;2023-06-14T18:49:11;3.40;;;1.98;;
35679;SDS011;21803;53.586;10.040;2023-06-14T18:51:36;4.00;;;2.17;;
35679;SDS011;21803;53.586;10.040;2023-06-14T18:54:04;2.42;;;1.85;;
35679;SDS011;21803;53.586;10.040;2023-06-14T18:56:29;3.72;;;1.95;;